createdAt,value
2019-05-21T00:03:16.941Z,94948.00
2019-05-21T00:08:19.447Z,94950.00
2019-05-21T00:13:22.374Z,94940.00
2019-05-21T00:18:24.824Z,94936.00
2019-05-21T00:23:27.292Z,94948.00
2019-05-21T00:28:39.941Z,94941.00
2019-05-21T00:34:18.795Z,94932.00
2019-05-21T00:39:57.535Z,94942.00
2019-05-21T00:45:00.141Z,94940.00
2019-05-21T00:50:03.231Z,94942.00
2019-05-21T00:55:07.910Z,94947.00
2019-05-21T01:00:11.010Z,94946.00
2019-05-21T01:05:13.919Z,94941.00
2019-05-21T01:10:16.307Z,94950.00
2019-05-21T01:15:18.723Z,94955.00
2019-05-21T01:20:21.232Z,94951.00
2019-05-21T01:25:23.743Z,94942.00
2019-05-21T01:30:25.999Z,94955.00
2019-05-21T01:35:28.303Z,94946.00
2019-05-21T01:40:30.652Z,94948.00
2019-05-21T01:45:33.092Z,94946.00
2019-05-21T01:50:35.453Z,94941.00
2019-05-21T01:55:37.803Z,94949.00
2019-05-21T02:00:40.203Z,94948.00
2019-05-21T02:05:42.623Z,94947.00
2019-05-21T02:10:44.939Z,94961.00
2019-05-21T02:15:47.294Z,94959.00
2019-05-21T02:20:49.564Z,94960.00
2019-05-21T02:25:51.966Z,94961.00
2019-05-21T02:30:56.519Z,94959.00
2019-05-21T02:35:58.555Z,94973.00
2019-05-21T02:41:01.342Z,94973.00
2019-05-21T02:46:03.718Z,94974.00
2019-05-21T02:51:06.188Z,94973.00
2019-05-21T02:56:08.582Z,94973.00
2019-05-21T03:01:40.207Z,94978.00
2019-05-21T03:06:42.479Z,94971.00
2019-05-21T03:11:45.143Z,94981.00
2019-05-21T03:16:47.537Z,94973.00
2019-05-21T03:21:49.896Z,94975.00
2019-05-21T03:26:52.293Z,94975.00
2019-05-21T03:31:54.725Z,94974.00
2019-05-21T03:36:57.086Z,94983.00
2019-05-21T03:41:59.376Z,94979.00
2019-05-21T03:47:01.747Z,94986.00
2019-05-21T03:52:04.139Z,94991.00
2019-05-21T03:57:07.705Z,94989.00
2019-05-21T04:02:10.153Z,94996.00
2019-05-21T04:07:12.654Z,95004.00
2019-05-21T04:12:15.314Z,95008.00
2019-05-21T04:17:46.276Z,95017.00
2019-05-21T04:22:54.803Z,95013.00
2019-05-21T04:27:58.146Z,95016.00
2019-05-21T04:33:02.088Z,95025.00
2019-05-21T04:38:04.498Z,95032.00
2019-05-21T04:43:06.786Z,95029.00
2019-05-21T04:48:09.153Z,95031.00
2019-05-21T04:53:11.512Z,95033.00
2019-05-21T04:58:13.919Z,95040.00
2019-05-21T05:03:16.196Z,95037.00
2019-05-21T05:08:18.567Z,95043.00
2019-05-21T05:13:20.956Z,95044.00
2019-05-21T05:18:23.403Z,95049.00
2019-05-21T05:23:25.733Z,95047.00
2019-05-21T05:28:28.119Z,95050.00
2019-05-21T05:33:31.543Z,95063.00
2019-05-21T05:38:34.011Z,95053.00
2019-05-21T05:43:36.483Z,95059.00
2019-05-21T05:48:45.768Z,95058.00
2019-05-21T05:53:57.535Z,95057.00
2019-05-21T05:59:00.091Z,95070.00
2019-05-21T06:04:02.468Z,95082.00
2019-05-21T06:09:05.516Z,95084.00
2019-05-21T06:14:07.818Z,95091.00
2019-05-21T06:19:10.203Z,95098.00
2019-05-21T06:24:13.793Z,95106.00
2019-05-21T06:29:16.227Z,95110.00
2019-05-21T06:34:18.623Z,95112.00
2019-05-21T06:39:21.010Z,95121.00
2019-05-21T06:44:23.467Z,95125.00
2019-05-21T06:49:25.987Z,95125.00
2019-05-21T06:54:28.436Z,95137.00
2019-05-21T06:59:30.863Z,95144.00
2019-05-21T07:04:33.154Z,95157.00
2019-05-21T07:09:35.633Z,95163.00
2019-05-21T07:14:38.042Z,95172.00
2019-05-21T07:19:40.410Z,95169.00
2019-05-21T07:24:42.843Z,95173.00
2019-05-21T07:29:45.234Z,95181.00
2019-05-21T07:34:47.535Z,95179.00
2019-05-21T07:39:49.886Z,95189.00
2019-05-21T07:44:52.171Z,95202.00
2019-05-21T07:49:54.454Z,95207.00
2019-05-21T07:54:56.747Z,95204.00
2019-05-21T07:59:59.115Z,95197.00
2019-05-21T08:05:02.306Z,95212.00
2019-05-21T08:10:07.169Z,95213.00
2019-05-21T08:15:10.957Z,95222.00
2019-05-21T08:20:14.511Z,95240.00
2019-05-21T08:25:16.975Z,95230.00
2019-05-21T08:30:19.563Z,95230.00
2019-05-21T08:35:22.251Z,95237.00
2019-05-21T08:40:24.759Z,95241.00
2019-05-21T08:45:27.153Z,95225.00
2019-05-21T08:50:29.719Z,95238.00
2019-05-21T08:55:32.136Z,95247.00
2019-05-21T09:00:34.781Z,95263.00
2019-05-21T09:05:37.306Z,95261.00
2019-05-21T09:10:41.182Z,95268.00
2019-05-21T09:15:43.712Z,95273.00
2019-05-21T09:20:46.656Z,95280.00
2019-05-21T09:25:49.662Z,95280.00
2019-05-21T09:30:52.487Z,95279.00
2019-05-21T09:35:55.070Z,95289.00
2019-05-21T09:40:57.426Z,95285.00
2019-05-21T09:45:59.817Z,95291.00
2019-05-21T09:51:02.206Z,95303.00
2019-05-21T09:56:23.675Z,95298.00
2019-05-21T10:01:48.045Z,95309.00
2019-05-21T10:06:50.243Z,95295.00
2019-05-21T10:11:52.671Z,95309.00
2019-05-21T10:16:55.412Z,95315.00
2019-05-21T10:21:58.296Z,95320.00
2019-05-21T10:27:03.418Z,95324.00
2019-05-21T10:32:05.219Z,95335.00
2019-05-21T10:37:08.768Z,95338.00
2019-05-21T10:42:11.087Z,95349.00
2019-05-21T10:47:16.190Z,95348.00
2019-05-21T10:52:18.541Z,95341.00
2019-05-21T10:57:20.963Z,95355.00
2019-05-21T11:02:33.355Z,95353.00
2019-05-21T11:07:35.744Z,95365.00
2019-05-21T11:12:38.201Z,95355.00
2019-05-21T11:17:58.932Z,95358.00
2019-05-21T11:22:44.870Z,95363.00
2019-05-21T11:27:47.275Z,95362.00
2019-05-21T11:32:49.660Z,95370.00
2019-05-21T11:37:52.102Z,95376.00
2019-05-21T11:42:54.692Z,95376.00
2019-05-21T11:47:57.181Z,95381.00
2019-05-21T11:52:59.639Z,95378.00
2019-05-21T11:58:01.986Z,95384.00
2019-05-21T12:03:04.606Z,95381.00
2019-05-21T12:08:07.173Z,95405.00
2019-05-21T12:13:09.551Z,95400.00
2019-05-21T12:18:11.980Z,95396.00
2019-05-21T12:23:14.355Z,95411.00
2019-05-21T12:28:17.684Z,95410.00
2019-05-21T12:33:20.191Z,95421.00
2019-05-21T12:38:23.226Z,95424.00
2019-05-21T12:43:25.653Z,95433.00
2019-05-21T12:48:28.321Z,95423.00
2019-05-21T12:53:30.837Z,95446.00
2019-05-21T12:58:33.280Z,95445.00
2019-05-21T13:03:35.667Z,95442.00
2019-05-21T13:08:39.162Z,95447.00
2019-05-21T13:13:41.747Z,95459.00
2019-05-21T13:18:44.127Z,95463.00
2019-05-21T13:23:46.619Z,95468.00
2019-05-21T13:28:49.080Z,95466.00
2019-05-21T13:33:51.579Z,95470.00
2019-05-21T13:38:53.996Z,95463.00
2019-05-21T13:43:56.488Z,95469.00
2019-05-21T13:48:59.263Z,95467.00
2019-05-21T13:54:01.691Z,95473.00
2019-05-21T13:59:04.271Z,95476.00
2019-05-21T14:04:07.038Z,95490.00
2019-05-21T14:09:09.685Z,95503.00
2019-05-21T14:14:12.118Z,95497.00
2019-05-21T14:19:14.579Z,95503.00
2019-05-21T14:24:17.111Z,95501.00
2019-05-21T14:29:19.588Z,95503.00
2019-05-21T14:34:22.051Z,95504.00
2019-05-21T14:39:24.741Z,95509.00
2019-05-21T14:44:27.151Z,95519.00
2019-05-21T14:49:29.530Z,95516.00
2019-05-21T14:54:31.954Z,95524.00
2019-05-21T14:59:34.455Z,95517.00
2019-05-21T15:04:37.003Z,95513.00
2019-05-21T15:09:39.623Z,95524.00
2019-05-21T15:14:42.016Z,95523.00
2019-05-21T15:19:46.772Z,95523.00
2019-05-21T15:24:49.179Z,95519.00
2019-05-21T15:29:51.560Z,95523.00
2019-05-21T15:34:55.094Z,95532.00
2019-05-21T15:39:57.603Z,95549.00
2019-05-21T15:44:59.983Z,95540.00
2019-05-21T15:50:02.716Z,95548.00
2019-05-21T15:55:07.363Z,95544.00
2019-05-21T16:00:10.539Z,95535.00
2019-05-21T16:05:13.055Z,95542.00
2019-05-21T16:10:15.603Z,95544.00
2019-05-21T16:15:17.949Z,95548.00
2019-05-21T16:20:20.337Z,95569.00
2019-05-21T16:25:22.809Z,95570.00
2019-05-21T16:30:25.461Z,95581.00
2019-05-21T16:35:29.403Z,95566.00
2019-05-21T16:40:32.130Z,95590.00
2019-05-21T16:45:34.611Z,95581.00
2019-05-21T16:50:36.975Z,95590.00
2019-05-21T16:55:40.187Z,95596.00
2019-05-21T17:00:43.079Z,95591.00
2019-05-21T17:05:45.358Z,95607.00
2019-05-21T17:10:47.738Z,95617.00
2019-05-21T17:15:50.216Z,95619.00
2019-05-21T17:20:52.607Z,95617.00
2019-05-21T17:25:55.068Z,95626.00
2019-05-21T17:30:57.547Z,95627.00
2019-05-21T17:35:59.818Z,95630.00
2019-05-21T17:41:02.486Z,95625.00
2019-05-21T17:46:04.877Z,95637.00
2019-05-21T17:51:09.008Z,95641.00
2019-05-21T17:56:11.654Z,95646.00
2019-05-21T18:01:15.727Z,95653.00
2019-05-21T18:06:18.547Z,95667.00
2019-05-21T18:11:21.224Z,95676.00
2019-05-21T18:16:24.804Z,95682.00
2019-05-21T18:21:27.205Z,95679.00
2019-05-21T18:26:29.649Z,95692.00
2019-05-21T18:31:32.187Z,95697.00
2019-05-21T18:36:34.867Z,95709.00
2019-05-21T18:41:37.299Z,95707.00
2019-05-21T18:46:39.742Z,95720.00
2019-05-21T18:51:42.152Z,95732.00
2019-05-21T18:56:44.779Z,95737.00
2019-05-21T19:01:47.280Z,95744.00
2019-05-21T19:06:50.043Z,95746.00
2019-05-21T19:11:52.520Z,95749.00
2019-05-21T19:16:55.009Z,95754.00
2019-05-21T19:21:57.448Z,95771.00
2019-05-21T19:26:59.900Z,95786.00
2019-05-21T19:32:02.311Z,95793.00
2019-05-21T19:37:04.877Z,95808.00
2019-05-21T19:42:07.468Z,95819.00
2019-05-21T19:47:10.016Z,95829.00
2019-05-21T19:52:12.743Z,95827.00
2019-05-21T19:57:16.206Z,95826.00
2019-05-21T20:02:18.911Z,95845.00
2019-05-21T20:07:21.679Z,95851.00
2019-05-21T20:12:26.246Z,95856.00
2019-05-21T20:17:29.832Z,95858.00
2019-05-21T20:22:32.572Z,95863.00
2019-05-21T20:27:35.731Z,95864.00
2019-05-21T20:32:39.595Z,95865.00
2019-05-21T20:37:42.291Z,95873.00
2019-05-21T20:42:45.783Z,95876.00
2019-05-21T20:47:50.017Z,95874.00
2019-05-21T20:52:53.301Z,95888.00
2019-05-21T20:57:55.601Z,95887.00
2019-05-21T21:03:00.302Z,95888.00
2019-05-21T21:08:04.383Z,95887.00
2019-05-21T21:13:08.311Z,95891.00
2019-05-21T21:18:11.627Z,95884.00
2019-05-21T21:23:16.335Z,95896.00
2019-05-21T21:28:18.715Z,95902.00
2019-05-21T21:33:21.205Z,95904.00
2019-05-21T21:38:27.195Z,95906.00
2019-05-21T21:43:30.107Z,95902.00
2019-05-21T21:48:32.484Z,95899.00
2019-05-21T21:53:35.680Z,95911.00
2019-05-21T21:58:38.043Z,95910.00
2019-05-21T22:03:42.745Z,95915.00
2019-05-21T22:08:46.195Z,95916.00
2019-05-21T22:13:49.514Z,95913.00
2019-05-21T22:18:52.590Z,95916.00
2019-05-21T22:23:55.691Z,95917.00
2019-05-21T22:28:58.805Z,95930.00
2019-05-21T22:34:01.235Z,95929.00
2019-05-21T22:39:08.391Z,95933.00
2019-05-21T22:44:10.842Z,95926.00
2019-05-21T22:49:13.239Z,95933.00
2019-05-21T22:54:15.685Z,95936.00
2019-05-21T22:59:18.859Z,95939.00
2019-05-21T23:04:21.581Z,95930.00
2019-05-21T23:09:26.303Z,95929.00
2019-05-21T23:14:28.583Z,95930.00
2019-05-21T23:19:32.444Z,95929.00
2019-05-21T23:24:42.959Z,95926.00
2019-05-21T23:29:45.643Z,95934.00
2019-05-21T23:34:48.703Z,95948.00
2019-05-21T23:39:52.368Z,95940.00
2019-05-21T23:44:54.763Z,95943.00
2019-05-21T23:49:57.333Z,95949.00
2019-05-21T23:55:00.712Z,95932.00
